createdAt,value
2022-10-16T00:03:00.457Z,61.32
2022-10-16T00:06:05.848Z,61.58
2022-10-16T00:09:09.414Z,61.38
2022-10-16T00:12:12.601Z,62.14
2022-10-16T00:15:15.897Z,62.80
2022-10-16T00:18:19.104Z,63.14
2022-10-16T00:21:26.086Z,63.07
2022-10-16T00:24:29.300Z,62.68
2022-10-16T00:27:32.562Z,62.30
2022-10-16T00:30:35.895Z,62.47
2022-10-16T00:33:41.149Z,63.56
2022-10-16T00:36:45.767Z,63.72
2022-10-16T00:39:49.220Z,64.36
2022-10-16T00:42:52.407Z,64.35
2022-10-16T00:45:55.726Z,65.31
2022-10-16T00:49:04.459Z,65.09
2022-10-16T00:52:09.179Z,64.49
2022-10-16T00:55:12.602Z,64.73
2022-10-16T00:58:15.875Z,64.43
2022-10-16T01:01:19.103Z,65.23
2022-10-16T01:04:23.523Z,64.74
2022-10-16T01:07:42.785Z,65.46
2022-10-16T01:11:00.288Z,64.88
2022-10-16T01:14:11.314Z,64.06
2022-10-16T01:17:18.215Z,63.88
2022-10-16T01:20:28.401Z,64.13
2022-10-16T01:23:46.543Z,64.71
2022-10-16T01:27:14.779Z,65.14
2022-10-16T01:30:23.299Z,65.61
2022-10-16T01:33:32.500Z,64.78
2022-10-16T01:36:41.206Z,65.33
2022-10-16T01:39:48.068Z,64.92
2022-10-16T01:46:03.443Z,63.54
2022-10-16T01:49:08.616Z,63.12
2022-10-16T01:52:15.982Z,64.81
2022-10-16T01:55:24.789Z,64.07
2022-10-16T01:58:35.702Z,63.23
2022-10-16T02:01:42.737Z,64.87
2022-10-16T02:04:49.715Z,65.53
2022-10-16T02:07:52.916Z,64.78
2022-10-16T02:10:57.136Z,63.63
2022-10-16T02:14:05.980Z,63.63
2022-10-16T02:17:13.857Z,63.39
2022-10-16T02:20:17.451Z,63.37
2022-10-16T02:23:27.585Z,63.94
2022-10-16T02:26:36.313Z,63.39
2022-10-16T02:29:46.055Z,63.87
2022-10-16T02:32:51.194Z,63.58
2022-10-16T02:35:55.963Z,63.72
2022-10-16T02:39:01.221Z,63.25
2022-10-16T02:42:04.915Z,63.72
2022-10-16T02:45:11.803Z,64.33
2022-10-16T02:48:15.912Z,63.77
2022-10-16T02:51:19.194Z,64.72
2022-10-16T02:54:22.482Z,65.81
2022-10-16T02:57:25.922Z,66.38
2022-10-16T03:00:30.809Z,65.10
2022-10-16T03:03:34.019Z,65.34
2022-10-16T03:06:37.340Z,64.92
2022-10-16T03:09:40.543Z,65.02
2022-10-16T03:12:43.830Z,65.13
2022-10-16T03:15:48.963Z,67.09
2022-10-16T03:18:52.432Z,65.62
2022-10-16T03:21:55.639Z,64.51
2022-10-16T03:24:58.858Z,64.88
2022-10-16T03:28:02.126Z,63.62
2022-10-16T03:31:07.022Z,63.63
2022-10-16T03:34:10.264Z,64.18
2022-10-16T03:37:13.728Z,63.21
2022-10-16T03:40:17.521Z,63.61
2022-10-16T03:43:20.701Z,64.73
2022-10-16T03:46:25.358Z,63.67
2022-10-16T03:49:28.584Z,63.00
2022-10-16T03:52:33.177Z,62.89
2022-10-16T03:55:37.559Z,63.87
2022-10-16T03:58:40.762Z,64.13
2022-10-16T04:01:45.451Z,63.32
2022-10-16T04:04:48.641Z,63.52
2022-10-16T04:07:51.969Z,63.62
2022-10-16T04:10:55.190Z,64.57
2022-10-16T04:13:58.428Z,65.54
2022-10-16T04:17:03.128Z,65.54
2022-10-16T04:20:07.498Z,64.51
2022-10-16T04:23:10.840Z,64.27
2022-10-16T04:26:14.193Z,67.30
2022-10-16T04:29:17.343Z,65.73
2022-10-16T04:32:22.133Z,64.92
2022-10-16T04:35:25.346Z,64.14
2022-10-16T04:38:28.929Z,64.06
2022-10-16T04:41:32.295Z,64.50
2022-10-16T04:44:35.570Z,63.73
2022-10-16T04:47:40.232Z,64.18
2022-10-16T04:50:43.637Z,65.00
2022-10-16T04:53:46.863Z,65.78
2022-10-16T04:56:51.889Z,66.12
2022-10-16T04:59:56.203Z,66.59
2022-10-16T05:03:01.967Z,66.12
2022-10-16T05:06:08.008Z,65.93
2022-10-16T05:09:11.930Z,67.96
2022-10-16T05:12:15.149Z,67.36
2022-10-16T05:15:18.389Z,66.66
2022-10-16T05:18:23.067Z,65.82
2022-10-16T05:21:26.231Z,64.16
2022-10-16T05:24:29.511Z,63.16
2022-10-16T05:27:32.694Z,62.50
2022-10-16T05:30:35.947Z,61.65
2022-10-16T05:33:40.632Z,62.67
2022-10-16T05:36:46.288Z,62.58
2022-10-16T05:39:49.519Z,62.78
2022-10-16T05:42:57.309Z,62.50
2022-10-16T05:46:02.331Z,62.29
2022-10-16T05:49:07.030Z,62.12
2022-10-16T05:52:10.212Z,60.38
2022-10-16T05:55:13.368Z,59.53
2022-10-16T05:58:16.580Z,61.16
2022-10-16T06:01:21.908Z,59.44
2022-10-16T06:04:26.594Z,58.49
2022-10-16T06:07:29.977Z,58.14
2022-10-16T06:10:33.175Z,57.03
2022-10-16T06:13:36.606Z,56.27
2022-10-16T06:16:40.116Z,56.18
2022-10-16T06:19:44.706Z,56.49
2022-10-16T06:22:47.928Z,55.30
2022-10-16T06:25:51.217Z,54.24
2022-10-16T06:28:56.791Z,55.09
2022-10-16T06:32:00.021Z,54.51
2022-10-16T06:35:04.836Z,53.88
2022-10-16T06:38:08.076Z,53.48
2022-10-16T06:41:13.532Z,53.04
2022-10-16T06:44:16.768Z,53.36
2022-10-16T06:47:20.029Z,52.51
2022-10-16T06:50:24.733Z,51.86
2022-10-16T06:53:29.495Z,51.92
2022-10-16T06:56:33.674Z,52.39
2022-10-16T06:59:36.920Z,52.29
2022-10-16T07:02:42.493Z,51.62
2022-10-16T07:05:47.148Z,50.52
2022-10-16T07:08:50.929Z,50.11
2022-10-16T07:11:54.460Z,50.04
2022-10-16T07:14:57.749Z,49.77
2022-10-16T07:18:01.043Z,50.38
2022-10-16T07:21:11.200Z,50.57
2022-10-16T07:24:16.515Z,49.49
2022-10-16T07:27:19.782Z,49.30
2022-10-16T07:30:23.072Z,48.91
2022-10-16T07:33:26.383Z,47.86
2022-10-16T07:36:33.222Z,48.05
2022-10-16T07:39:36.508Z,47.46
2022-10-16T07:42:39.756Z,47.42
2022-10-16T07:45:50.466Z,46.99
2022-10-16T07:48:54.255Z,46.34
2022-10-16T07:51:58.904Z,45.22
2022-10-16T07:55:02.115Z,45.52
2022-10-16T07:58:05.762Z,45.69
2022-10-16T08:01:10.845Z,46.07
2022-10-16T08:04:14.059Z,47.50
2022-10-16T08:07:18.899Z,46.04
2022-10-16T08:10:26.640Z,44.97
2022-10-16T08:13:29.897Z,46.24
2022-10-16T08:16:33.387Z,45.24
2022-10-16T08:19:36.617Z,44.76
2022-10-16T08:22:41.655Z,44.27
2022-10-16T08:25:44.943Z,44.42
2022-10-16T08:28:48.249Z,43.75
2022-10-16T08:31:51.602Z,43.39
2022-10-16T08:34:54.851Z,43.75
2022-10-16T08:38:01.544Z,43.47
2022-10-16T08:41:39.350Z,42.36
2022-10-16T08:45:18.308Z,42.81
2022-10-16T08:48:27.732Z,41.97
2022-10-16T08:51:37.038Z,41.24
2022-10-16T08:54:48.033Z,40.51
2022-10-16T08:57:51.708Z,40.39
2022-10-16T09:00:57.351Z,40.31
2022-10-16T09:04:45.819Z,39.74
2022-10-16T09:07:57.506Z,39.42
2022-10-16T09:11:11.216Z,39.84
2022-10-16T09:14:37.353Z,40.18
2022-10-16T09:17:49.690Z,41.01
2022-10-16T09:20:59.417Z,39.68
2022-10-16T09:24:12.679Z,39.11
2022-10-16T09:27:17.726Z,38.97
2022-10-16T09:30:23.250Z,38.68
2022-10-16T09:33:38.147Z,37.68
2022-10-16T09:36:45.474Z,36.50
2022-10-16T09:39:54.785Z,36.88
2022-10-16T09:43:08.234Z,36.22
2022-10-16T09:46:39.074Z,36.72
2022-10-16T09:49:54.210Z,36.64
2022-10-16T09:53:08.230Z,34.83
2022-10-16T09:56:15.362Z,35.05
2022-10-16T09:59:22.307Z,35.84
2022-10-16T10:02:33.081Z,35.97
2022-10-16T10:05:36.590Z,36.47
2022-10-16T10:08:47.045Z,33.68
2022-10-16T10:11:56.269Z,33.22
2022-10-16T10:15:08.515Z,33.02
2022-10-16T10:18:21.076Z,33.58
2022-10-16T10:21:24.485Z,34.31
2022-10-16T10:24:27.928Z,34.95
2022-10-16T10:27:42.140Z,34.90
2022-10-16T10:30:56.353Z,34.95
2022-10-16T10:34:08.024Z,33.84
2022-10-16T10:37:26.348Z,33.79
2022-10-16T10:40:42.080Z,33.07
2022-10-16T10:43:57.925Z,33.91
2022-10-16T10:47:11.627Z,33.67
2022-10-16T10:50:24.081Z,33.73
2022-10-16T10:53:38.751Z,33.76
2022-10-16T10:56:49.602Z,34.41
2022-10-16T11:00:10.555Z,33.74
2022-10-16T11:03:32.698Z,33.71
2022-10-16T11:06:39.359Z,33.46
2022-10-16T11:09:48.044Z,34.13
2022-10-16T11:12:55.136Z,33.59
2022-10-16T11:16:01.447Z,33.41
2022-10-16T11:19:15.313Z,33.77
2022-10-16T11:22:22.962Z,33.46
2022-10-16T11:25:34.075Z,33.63
2022-10-16T11:28:44.252Z,32.77
2022-10-16T11:31:52.173Z,32.62
2022-10-16T11:35:02.276Z,33.73
2022-10-16T11:38:12.525Z,32.46
2022-10-16T11:41:24.698Z,32.62
2022-10-16T11:44:44.707Z,32.19
2022-10-16T11:47:59.229Z,32.14
2022-10-16T11:51:11.755Z,32.13
2022-10-16T11:54:23.692Z,32.55
2022-10-16T11:57:30.322Z,33.23
2022-10-16T12:00:41.038Z,32.97
2022-10-16T12:03:51.357Z,33.35
2022-10-16T12:07:02.125Z,32.41
2022-10-16T12:10:13.219Z,32.00
2022-10-16T12:13:33.810Z,31.94
2022-10-16T12:16:40.050Z,32.24
2022-10-16T12:19:43.316Z,32.73
2022-10-16T12:22:55.174Z,33.03
2022-10-16T12:26:00.676Z,32.95
2022-10-16T12:29:16.753Z,32.75
2022-10-16T12:32:47.354Z,31.98
2022-10-16T12:35:52.166Z,32.61
2022-10-16T12:38:57.176Z,32.13
2022-10-16T12:42:05.738Z,32.89
2022-10-16T12:45:28.150Z,32.74
2022-10-16T12:48:42.332Z,32.10
2022-10-16T12:51:52.680Z,31.90
2022-10-16T12:55:01.961Z,32.14
2022-10-16T12:58:17.317Z,32.23
2022-10-16T13:01:40.782Z,32.14
2022-10-16T13:05:11.161Z,32.60
2022-10-16T13:08:39.954Z,32.85
2022-10-16T13:12:01.518Z,33.17
2022-10-16T13:15:19.410Z,33.40
2022-10-16T13:18:29.053Z,33.09
2022-10-16T13:21:41.834Z,32.91
2022-10-16T13:24:55.888Z,32.85
2022-10-16T13:28:03.147Z,32.81
2022-10-16T13:31:07.133Z,32.69
2022-10-16T13:34:16.751Z,33.48
2022-10-16T13:37:21.845Z,34.21
2022-10-16T13:40:27.075Z,34.09
2022-10-16T13:43:36.626Z,33.84
2022-10-16T13:46:39.929Z,33.68
2022-10-16T13:49:43.188Z,33.78
2022-10-16T13:52:46.886Z,33.98
2022-10-16T13:55:50.144Z,34.11
2022-10-16T13:59:03.262Z,34.64
2022-10-16T14:02:19.580Z,34.65
2022-10-16T14:05:22.880Z,34.50
2022-10-16T14:08:28.003Z,33.85
2022-10-16T14:11:31.679Z,33.95
2022-10-16T14:14:42.276Z,34.30
2022-10-16T14:17:50.703Z,34.87
2022-10-16T14:20:55.702Z,34.85
2022-10-16T14:24:00.789Z,35.02
2022-10-16T14:27:04.919Z,35.02
2022-10-16T14:30:17.904Z,35.82
2022-10-16T14:33:24.975Z,36.10
2022-10-16T14:36:30.386Z,35.96
2022-10-16T14:39:33.798Z,35.84
2022-10-16T14:42:37.132Z,35.59
2022-10-16T14:45:44.076Z,35.40
2022-10-16T14:48:51.078Z,35.60
2022-10-16T14:51:54.409Z,35.88
2022-10-16T14:54:57.659Z,36.37
2022-10-16T14:58:01.142Z,36.59
2022-10-16T15:01:08.002Z,36.71
2022-10-16T15:04:14.649Z,36.91
2022-10-16T15:07:18.115Z,36.81
2022-10-16T15:10:24.074Z,37.24
2022-10-16T15:13:27.445Z,37.54
2022-10-16T15:16:32.508Z,37.21
2022-10-16T15:19:35.747Z,37.17
2022-10-16T15:22:38.936Z,37.28
2022-10-16T15:25:45.525Z,37.99
2022-10-16T15:28:48.812Z,38.22
2022-10-16T15:31:53.517Z,38.29
2022-10-16T15:34:57.519Z,38.79
2022-10-16T15:38:06.227Z,38.67
2022-10-16T15:41:12.917Z,38.90
2022-10-16T15:44:21.275Z,38.50
2022-10-16T15:47:27.826Z,38.40
2022-10-16T15:50:35.597Z,38.33
2022-10-16T15:53:48.459Z,38.55
2022-10-16T15:56:51.740Z,38.31
2022-10-16T15:59:57.724Z,38.46
2022-10-16T16:03:00.956Z,38.67
2022-10-16T16:06:07.272Z,38.19
2022-10-16T16:09:11.899Z,38.63
2022-10-16T16:12:15.169Z,38.46
2022-10-16T16:15:18.476Z,38.82
2022-10-16T16:18:21.941Z,39.22
2022-10-16T16:21:25.169Z,39.59
2022-10-16T16:24:29.855Z,39.74
2022-10-16T16:27:34.635Z,39.92
2022-10-16T16:30:37.925Z,40.43
2022-10-16T16:33:41.131Z,39.46
2022-10-16T16:36:44.348Z,39.84
2022-10-16T16:39:48.956Z,39.83
2022-10-16T16:42:52.176Z,41.12
2022-10-16T16:45:56.173Z,40.87
2022-10-16T16:49:00.406Z,40.71
2022-10-16T16:52:03.612Z,40.57
2022-10-16T16:55:09.093Z,39.97
2022-10-16T16:58:12.471Z,40.47
2022-10-16T17:01:19.935Z,40.83
2022-10-16T17:04:23.760Z,41.10
2022-10-16T17:07:28.772Z,40.46
2022-10-16T17:10:33.627Z,40.36
2022-10-16T17:13:38.460Z,40.87
2022-10-16T17:16:44.733Z,40.99
2022-10-16T17:19:48.065Z,41.43
2022-10-16T17:22:52.043Z,41.21
2022-10-16T17:25:56.916Z,41.49
2022-10-16T17:29:02.416Z,41.58
2022-10-16T17:32:06.103Z,42.24
2022-10-16T17:35:09.997Z,42.65
2022-10-16T17:38:15.263Z,43.08
2022-10-16T17:41:21.734Z,42.96
2022-10-16T17:44:24.927Z,43.41
2022-10-16T17:47:29.262Z,43.59
2022-10-16T17:50:32.504Z,44.30
2022-10-16T17:53:36.187Z,44.95
2022-10-16T17:56:43.712Z,45.85
2022-10-16T17:59:46.935Z,46.33
2022-10-16T18:02:51.348Z,46.02
2022-10-16T18:05:54.827Z,46.23
2022-10-16T18:08:59.163Z,46.03
2022-10-16T18:12:03.809Z,45.09
2022-10-16T18:15:08.462Z,44.57
2022-10-16T18:18:11.836Z,44.53
2022-10-16T18:21:17.368Z,44.82
2022-10-16T18:24:21.006Z,46.08
2022-10-16T18:27:26.144Z,45.93
2022-10-16T18:30:29.966Z,45.56
2022-10-16T18:33:34.385Z,45.37
2022-10-16T18:36:37.796Z,45.53
2022-10-16T18:39:41.115Z,45.95
2022-10-16T18:42:45.691Z,45.53
2022-10-16T18:45:57.456Z,45.57
2022-10-16T18:49:01.862Z,45.68
2022-10-16T18:52:05.779Z,45.22
2022-10-16T18:55:10.919Z,45.26
2022-10-16T18:58:15.576Z,45.77
2022-10-16T19:01:21.741Z,45.65
2022-10-16T19:04:25.135Z,45.79
2022-10-16T19:07:28.725Z,46.28
2022-10-16T19:10:32.171Z,45.93
2022-10-16T19:13:36.903Z,45.94
2022-10-16T19:16:42.887Z,45.72
2022-10-16T19:19:46.193Z,45.90
2022-10-16T19:22:54.406Z,46.55
2022-10-16T19:25:57.633Z,46.39
2022-10-16T19:29:05.818Z,46.89
2022-10-16T19:32:09.065Z,46.81
2022-10-16T19:35:12.276Z,45.96
2022-10-16T19:38:15.604Z,45.71
2022-10-16T19:41:20.305Z,46.21
2022-10-16T19:44:26.507Z,46.61
2022-10-16T19:47:29.695Z,46.76
2022-10-16T19:50:32.908Z,47.32
2022-10-16T19:53:36.121Z,47.02
2022-10-16T19:56:39.480Z,46.40
2022-10-16T19:59:45.671Z,46.57
2022-10-16T20:02:49.198Z,47.22
2022-10-16T20:05:53.479Z,47.80
2022-10-16T20:08:58.331Z,49.08
2022-10-16T20:12:01.576Z,48.97
2022-10-16T20:15:06.986Z,50.22
2022-10-16T20:18:10.279Z,50.05
2022-10-16T20:21:15.324Z,49.12
2022-10-16T20:24:19.094Z,48.80
2022-10-16T20:27:22.281Z,49.18
2022-10-16T20:30:26.924Z,48.91
2022-10-16T20:33:30.143Z,48.33
2022-10-16T20:36:34.069Z,47.62
2022-10-16T20:39:37.330Z,47.97
2022-10-16T20:42:40.644Z,48.18
2022-10-16T20:45:46.186Z,48.54
2022-10-16T20:48:49.546Z,49.28
2022-10-16T20:51:52.724Z,49.45
2022-10-16T20:54:55.985Z,49.20
2022-10-16T20:57:59.234Z,48.79
2022-10-16T21:01:08.224Z,49.30
2022-10-16T21:04:11.549Z,49.31
2022-10-16T21:07:14.817Z,48.82
2022-10-16T21:10:19.204Z,49.30
2022-10-16T21:13:24.220Z,49.44
2022-10-16T21:16:31.064Z,50.44
2022-10-16T21:19:34.308Z,49.63
2022-10-16T21:22:37.596Z,48.90
2022-10-16T21:25:40.851Z,50.00
2022-10-16T21:28:44.081Z,49.60
2022-10-16T21:31:48.892Z,50.45
2022-10-16T21:34:52.151Z,50.96
2022-10-16T21:37:55.453Z,52.22
2022-10-16T21:40:58.694Z,53.22
2022-10-16T21:44:02.674Z,52.30
2022-10-16T21:47:07.316Z,51.17
2022-10-16T21:50:11.034Z,50.61
2022-10-16T21:53:14.248Z,49.79
2022-10-16T21:56:18.907Z,49.68
2022-10-16T21:59:22.278Z,49.64
2022-10-16T22:02:26.987Z,49.60
2022-10-16T22:05:30.140Z,50.02
2022-10-16T22:08:34.395Z,49.71
2022-10-16T22:11:39.441Z,50.20
2022-10-16T22:14:42.685Z,49.92
2022-10-16T22:17:47.304Z,50.34
2022-10-16T22:20:50.603Z,50.14
2022-10-16T22:23:53.795Z,50.26
2022-10-16T22:26:57.088Z,51.06
2022-10-16T22:30:00.282Z,52.57
2022-10-16T22:33:05.626Z,51.80
2022-10-16T22:36:12.516Z,52.35
2022-10-16T22:39:15.700Z,51.77
2022-10-16T22:42:19.027Z,52.12
2022-10-16T22:45:22.199Z,53.16
2022-10-16T22:48:26.856Z,52.86
2022-10-16T22:51:30.226Z,52.82
2022-10-16T22:54:33.460Z,52.91
2022-10-16T22:57:36.703Z,53.97
2022-10-16T23:00:42.581Z,53.35
2022-10-16T23:03:47.390Z,54.07
2022-10-16T23:06:50.593Z,53.47
2022-10-16T23:09:54.802Z,53.81
2022-10-16T23:12:58.076Z,54.17
2022-10-16T23:16:01.317Z,56.09
2022-10-16T23:19:06.042Z,55.23
2022-10-16T23:22:09.258Z,55.37
2022-10-16T23:25:12.507Z,55.11
2022-10-16T23:31:24.524Z,55.56
2022-10-16T23:34:29.136Z,55.67
2022-10-16T23:37:32.372Z,55.85
2022-10-16T23:40:35.692Z,55.58
2022-10-16T23:43:39.259Z,56.44
2022-10-16T23:46:42.504Z,55.58
2022-10-16T23:49:47.158Z,55.94
2022-10-16T23:52:50.442Z,55.78
2022-10-16T23:55:53.714Z,55.82
2022-10-16T23:58:56.900Z,55.05
